sensor_id;sensor_type;location;lat;lon;timestamp;P1;durP1;ratioP1;P2;durP2;ratioP2
1999;SDS011;1001;48.87406500;9.59633600;2023-03-04T00:01:05;25.27;;;13.80;;
1999;SDS011;1001;48.87406500;9.59633600;2023-03-04T00:03:32;25.73;;;13.17;;
1999;SDS011;1001;48.87406500;9.59633600;2023-03-04T00:06:01;24.43;;;14.67;;
1999;SDS011;1001;48.87406500;9.59633600;2023-03-04T00:08:29;20.70;;;13.20;;
1999;SDS011;1001;48.87406500;9.59633600;2023-03-04T00:10:57;22.70;;;13.10;;
1999;SDS011;1001;48.87406500;9.59633600;2023-03-04T00:13:24;22.00;;;12.27;;
1999;SDS011;1001;48.87406500;9.59633600;2023-03-04T00:15:50;20.93;;;12.20;;
1999;SDS011;1001;48.87406500;9.59633600;2023-03-04T00:18:18;17.87;;;10.97;;
1999;SDS011;1001;48.87406500;9.59633600;2023-03-04T00:20:45;16.33;;;10.67;;
1999;SDS011;1001;48.87406500;9.59633600;2023-03-04T00:23:13;19.80;;;10.97;;
1999;SDS011;1001;48.87406500;9.59633600;2023-03-04T00:25:40;24.27;;;11.87;;
1999;SDS011;1001;48.87406500;9.59633600;2023-03-04T00:28:08;17.57;;;10.20;;
1999;SDS011;1001;48.87406500;9.59633600;2023-03-04T00:30:35;18.00;;;11.37;;
1999;SDS011;1001;48.87406500;9.59633600;2023-03-04T00:33:01;20.50;;;12.33;;
1999;SDS011;1001;48.87406500;9.59633600;2023-03-04T00:35:28;17.80;;;11.03;;
1999;SDS011;1001;48.87406500;9.59633600;2023-03-04T00:37:54;25.50;;;13.40;;
1999;SDS011;1001;48.87406500;9.59633600;2023-03-04T00:40:21;27.93;;;15.53;;
1999;SDS011;1001;48.87406500;9.59633600;2023-03-04T00:42:48;25.27;;;14.17;;
1999;SDS011;1001;48.87406500;9.59633600;2023-03-04T00:45:16;22.77;;;14.27;;
1999;SDS011;1001;48.87406500;9.59633600;2023-03-04T00:47:42;27.70;;;15.87;;
1999;SDS011;1001;48.87406500;9.59633600;2023-03-04T00:50:09;24.80;;;14.47;;
1999;SDS011;1001;48.87406500;9.59633600;2023-03-04T00:52:36;23.17;;;13.73;;
1999;SDS011;1001;48.87406500;9.59633600;2023-03-04T00:55:03;20.33;;;12.37;;
1999;SDS011;1001;48.87406500;9.59633600;2023-03-04T00:57:31;21.33;;;13.20;;
1999;SDS011;1001;48.87406500;9.59633600;2023-03-04T00:59:58;23.10;;;12.00;;
1999;SDS011;1001;48.87406500;9.59633600;2023-03-04T01:02:27;21.60;;;13.03;;
1999;SDS011;1001;48.87406500;9.59633600;2023-03-04T01:04:53;23.87;;;12.00;;
1999;SDS011;1001;48.87406500;9.59633600;2023-03-04T01:07:20;27.83;;;15.90;;
1999;SDS011;1001;48.87406500;9.59633600;2023-03-04T01:09:47;29.03;;;16.00;;
1999;SDS011;1001;48.87406500;9.59633600;2023-03-04T01:12:13;26.03;;;15.40;;
1999;SDS011;1001;48.87406500;9.59633600;2023-03-04T01:14:40;31.20;;;16.50;;
1999;SDS011;1001;48.87406500;9.59633600;2023-03-04T01:17:06;29.27;;;17.73;;
1999;SDS011;1001;48.87406500;9.59633600;2023-03-04T01:19:34;35.27;;;21.03;;
1999;SDS011;1001;48.87406500;9.59633600;2023-03-04T01:22:01;29.00;;;17.37;;
1999;SDS011;1001;48.87406500;9.59633600;2023-03-04T01:24:28;33.97;;;20.80;;
1999;SDS011;1001;48.87406500;9.59633600;2023-03-04T01:26:55;45.90;;;25.23;;
1999;SDS011;1001;48.87406500;9.59633600;2023-03-04T01:29:21;44.53;;;26.07;;
1999;SDS011;1001;48.87406500;9.59633600;2023-03-04T01:31:48;46.60;;;24.70;;
1999;SDS011;1001;48.87406500;9.59633600;2023-03-04T01:34:15;35.23;;;22.07;;
1999;SDS011;1001;48.87406500;9.59633600;2023-03-04T01:36:43;33.60;;;19.90;;
1999;SDS011;1001;48.87406500;9.59633600;2023-03-04T01:39:10;35.10;;;20.07;;
1999;SDS011;1001;48.87406500;9.59633600;2023-03-04T01:41:36;35.73;;;19.80;;
1999;SDS011;1001;48.87406500;9.59633600;2023-03-04T01:44:03;32.57;;;18.67;;
1999;SDS011;1001;48.87406500;9.59633600;2023-03-04T01:46:31;43.40;;;22.77;;
1999;SDS011;1001;48.87406500;9.59633600;2023-03-04T01:48:57;38.27;;;21.53;;
1999;SDS011;1001;48.87406500;9.59633600;2023-03-04T01:51:25;36.43;;;21.63;;
1999;SDS011;1001;48.87406500;9.59633600;2023-03-04T01:53:53;37.13;;;22.37;;
1999;SDS011;1001;48.87406500;9.59633600;2023-03-04T01:56:22;29.07;;;18.83;;
1999;SDS011;1001;48.87406500;9.59633600;2023-03-04T01:59:07;42.10;;;21.47;;
1999;SDS011;1001;48.87406500;9.59633600;2023-03-04T02:01:36;34.10;;;19.30;;
1999;SDS011;1001;48.87406500;9.59633600;2023-03-04T02:04:04;39.83;;;22.20;;
1999;SDS011;1001;48.87406500;9.59633600;2023-03-04T02:06:31;51.27;;;28.77;;
1999;SDS011;1001;48.87406500;9.59633600;2023-03-04T02:09:00;55.03;;;31.98;;
1999;SDS011;1001;48.87406500;9.59633600;2023-03-04T02:11:26;49.90;;;29.20;;
1999;SDS011;1001;48.87406500;9.59633600;2023-03-04T02:13:53;47.43;;;27.53;;
1999;SDS011;1001;48.87406500;9.59633600;2023-03-04T02:16:19;44.03;;;26.77;;
1999;SDS011;1001;48.87406500;9.59633600;2023-03-04T02:18:46;46.47;;;28.17;;
1999;SDS011;1001;48.87406500;9.59633600;2023-03-04T02:21:14;44.10;;;27.07;;
1999;SDS011;1001;48.87406500;9.59633600;2023-03-04T02:23:48;42.93;;;24.97;;
1999;SDS011;1001;48.87406500;9.59633600;2023-03-04T02:26:24;43.27;;;27.00;;
1999;SDS011;1001;48.87406500;9.59633600;2023-03-04T02:28:53;51.03;;;27.60;;
1999;SDS011;1001;48.87406500;9.59633600;2023-03-04T02:31:23;54.20;;;29.10;;
1999;SDS011;1001;48.87406500;9.59633600;2023-03-04T02:33:51;57.63;;;29.30;;
1999;SDS011;1001;48.87406500;9.59633600;2023-03-04T02:36:19;47.23;;;28.37;;
1999;SDS011;1001;48.87406500;9.59633600;2023-03-04T02:38:46;54.70;;;30.93;;
1999;SDS011;1001;48.87406500;9.59633600;2023-03-04T02:41:14;53.97;;;28.50;;
1999;SDS011;1001;48.87406500;9.59633600;2023-03-04T02:43:45;62.10;;;31.27;;
1999;SDS011;1001;48.87406500;9.59633600;2023-03-04T02:46:13;57.33;;;30.40;;
1999;SDS011;1001;48.87406500;9.59633600;2023-03-04T02:48:39;62.13;;;31.27;;
1999;SDS011;1001;48.87406500;9.59633600;2023-03-04T02:51:06;55.40;;;29.27;;
1999;SDS011;1001;48.87406500;9.59633600;2023-03-04T02:53:32;53.63;;;30.43;;
1999;SDS011;1001;48.87406500;9.59633600;2023-03-04T02:55:59;46.87;;;28.40;;
1999;SDS011;1001;48.87406500;9.59633600;2023-03-04T02:58:26;45.07;;;27.73;;
1999;SDS011;1001;48.87406500;9.59633600;2023-03-04T03:00:54;47.75;;;28.33;;
1999;SDS011;1001;48.87406500;9.59633600;2023-03-04T03:03:20;53.77;;;28.93;;
1999;SDS011;1001;48.87406500;9.59633600;2023-03-04T03:05:47;47.40;;;28.70;;
1999;SDS011;1001;48.87406500;9.59633600;2023-03-04T03:08:14;50.40;;;27.90;;
1999;SDS011;1001;48.87406500;9.59633600;2023-03-04T03:10:41;53.30;;;30.60;;
1999;SDS011;1001;48.87406500;9.59633600;2023-03-04T03:13:08;63.33;;;30.83;;
1999;SDS011;1001;48.87406500;9.59633600;2023-03-04T03:15:34;57.60;;;31.40;;
1999;SDS011;1001;48.87406500;9.59633600;2023-03-04T03:18:07;50.43;;;27.07;;
1999;SDS011;1001;48.87406500;9.59633600;2023-03-04T03:20:34;56.77;;;29.50;;
1999;SDS011;1001;48.87406500;9.59633600;2023-03-04T03:23:01;53.17;;;26.70;;
1999;SDS011;1001;48.87406500;9.59633600;2023-03-04T03:25:27;50.47;;;27.50;;
1999;SDS011;1001;48.87406500;9.59633600;2023-03-04T03:27:54;55.00;;;24.77;;
1999;SDS011;1001;48.87406500;9.59633600;2023-03-04T03:30:21;46.57;;;26.03;;
1999;SDS011;1001;48.87406500;9.59633600;2023-03-04T03:32:47;46.37;;;24.13;;
1999;SDS011;1001;48.87406500;9.59633600;2023-03-04T03:35:15;38.90;;;21.23;;
1999;SDS011;1001;48.87406500;9.59633600;2023-03-04T03:37:42;40.23;;;21.80;;
1999;SDS011;1001;48.87406500;9.59633600;2023-03-04T03:40:09;42.10;;;23.07;;
1999;SDS011;1001;48.87406500;9.59633600;2023-03-04T03:42:37;36.27;;;20.93;;
1999;SDS011;1001;48.87406500;9.59633600;2023-03-04T03:45:04;42.65;;;21.00;;
1999;SDS011;1001;48.87406500;9.59633600;2023-03-04T03:47:31;41.28;;;21.75;;
1999;SDS011;1001;48.87406500;9.59633600;2023-03-04T03:49:58;40.73;;;21.40;;
1999;SDS011;1001;48.87406500;9.59633600;2023-03-04T03:52:26;46.80;;;25.10;;
1999;SDS011;1001;48.87406500;9.59633600;2023-03-04T03:54:52;50.78;;;31.75;;
1999;SDS011;1001;48.87406500;9.59633600;2023-03-04T03:57:19;58.53;;;32.10;;
1999;SDS011;1001;48.87406500;9.59633600;2023-03-04T03:59:45;56.50;;;31.37;;
1999;SDS011;1001;48.87406500;9.59633600;2023-03-04T04:02:12;60.53;;;31.45;;
1999;SDS011;1001;48.87406500;9.59633600;2023-03-04T04:04:39;60.22;;;32.05;;
1999;SDS011;1001;48.87406500;9.59633600;2023-03-04T04:07:05;57.33;;;30.77;;
1999;SDS011;1001;48.87406500;9.59633600;2023-03-04T04:09:33;57.88;;;31.10;;
1999;SDS011;1001;48.87406500;9.59633600;2023-03-04T04:12:00;63.88;;;33.55;;
1999;SDS011;1001;48.87406500;9.59633600;2023-03-04T04:14:27;55.55;;;31.27;;
1999;SDS011;1001;48.87406500;9.59633600;2023-03-04T04:16:53;61.95;;;33.92;;
1999;SDS011;1001;48.87406500;9.59633600;2023-03-04T04:19:20;63.83;;;35.35;;
1999;SDS011;1001;48.87406500;9.59633600;2023-03-04T04:21:47;59.63;;;34.28;;
1999;SDS011;1001;48.87406500;9.59633600;2023-03-04T04:24:14;63.53;;;33.80;;
1999;SDS011;1001;48.87406500;9.59633600;2023-03-04T04:26:43;59.15;;;31.30;;
1999;SDS011;1001;48.87406500;9.59633600;2023-03-04T04:29:11;56.60;;;33.33;;
1999;SDS011;1001;48.87406500;9.59633600;2023-03-04T04:31:39;64.00;;;33.53;;
1999;SDS011;1001;48.87406500;9.59633600;2023-03-04T04:34:06;61.78;;;31.67;;
1999;SDS011;1001;48.87406500;9.59633600;2023-03-04T04:36:32;60.97;;;31.05;;
1999;SDS011;1001;48.87406500;9.59633600;2023-03-04T04:38:59;60.47;;;32.40;;
1999;SDS011;1001;48.87406500;9.59633600;2023-03-04T04:41:26;62.08;;;32.42;;
1999;SDS011;1001;48.87406500;9.59633600;2023-03-04T04:43:57;62.15;;;32.78;;
1999;SDS011;1001;48.87406500;9.59633600;2023-03-04T04:46:24;63.65;;;33.53;;
1999;SDS011;1001;48.87406500;9.59633600;2023-03-04T04:48:51;63.65;;;32.25;;
1999;SDS011;1001;48.87406500;9.59633600;2023-03-04T04:51:18;59.92;;;32.45;;
1999;SDS011;1001;48.87406500;9.59633600;2023-03-04T04:53:45;61.65;;;31.73;;
1999;SDS011;1001;48.87406500;9.59633600;2023-03-04T04:56:12;66.32;;;33.50;;
1999;SDS011;1001;48.87406500;9.59633600;2023-03-04T04:58:41;78.45;;;37.35;;
1999;SDS011;1001;48.87406500;9.59633600;2023-03-04T05:01:09;73.40;;;36.15;;
1999;SDS011;1001;48.87406500;9.59633600;2023-03-04T05:03:36;76.43;;;35.05;;
1999;SDS011;1001;48.87406500;9.59633600;2023-03-04T05:06:04;78.65;;;35.78;;
1999;SDS011;1001;48.87406500;9.59633600;2023-03-04T05:08:33;73.90;;;34.90;;
1999;SDS011;1001;48.87406500;9.59633600;2023-03-04T05:11:00;185.82;;;47.30;;
1999;SDS011;1001;48.87406500;9.59633600;2023-03-04T05:13:27;83.45;;;37.53;;
1999;SDS011;1001;48.87406500;9.59633600;2023-03-04T05:15:54;170.82;;;42.55;;
1999;SDS011;1001;48.87406500;9.59633600;2023-03-04T05:18:24;194.55;;;42.88;;
1999;SDS011;1001;48.87406500;9.59633600;2023-03-04T05:20:52;107.57;;;38.70;;
1999;SDS011;1001;48.87406500;9.59633600;2023-03-04T05:23:20;100.40;;;35.65;;
1999;SDS011;1001;48.87406500;9.59633600;2023-03-04T05:25:47;118.07;;;38.05;;
1999;SDS011;1001;48.87406500;9.59633600;2023-03-04T05:28:14;82.57;;;35.75;;
1999;SDS011;1001;48.87406500;9.59633600;2023-03-04T05:30:41;107.85;;;35.40;;
1999;SDS011;1001;48.87406500;9.59633600;2023-03-04T05:33:09;66.40;;;35.38;;
1999;SDS011;1001;48.87406500;9.59633600;2023-03-04T05:35:39;98.57;;;37.75;;
1999;SDS011;1001;48.87406500;9.59633600;2023-03-04T05:38:07;93.78;;;39.97;;
1999;SDS011;1001;48.87406500;9.59633600;2023-03-04T05:40:35;77.30;;;34.42;;
1999;SDS011;1001;48.87406500;9.59633600;2023-03-04T05:43:03;186.45;;;52.78;;
1999;SDS011;1001;48.87406500;9.59633600;2023-03-04T05:45:29;119.07;;;39.47;;
1999;SDS011;1001;48.87406500;9.59633600;2023-03-04T05:47:56;82.72;;;35.75;;
1999;SDS011;1001;48.87406500;9.59633600;2023-03-04T05:50:23;81.45;;;36.67;;
1999;SDS011;1001;48.87406500;9.59633600;2023-03-04T05:52:52;65.32;;;30.95;;
1999;SDS011;1001;48.87406500;9.59633600;2023-03-04T05:55:18;65.85;;;31.45;;
1999;SDS011;1001;48.87406500;9.59633600;2023-03-04T05:57:45;51.40;;;28.30;;
1999;SDS011;1001;48.87406500;9.59633600;2023-03-04T06:00:13;93.82;;;31.30;;
1999;SDS011;1001;48.87406500;9.59633600;2023-03-04T06:02:41;51.75;;;28.52;;
1999;SDS011;1001;48.87406500;9.59633600;2023-03-04T06:05:09;59.00;;;28.45;;
1999;SDS011;1001;48.87406500;9.59633600;2023-03-04T06:07:36;53.47;;;26.00;;
1999;SDS011;1001;48.87406500;9.59633600;2023-03-04T06:10:05;62.50;;;28.75;;
1999;SDS011;1001;48.87406500;9.59633600;2023-03-04T06:12:32;79.55;;;27.27;;
1999;SDS011;1001;48.87406500;9.59633600;2023-03-04T06:14:59;69.25;;;28.15;;
1999;SDS011;1001;48.87406500;9.59633600;2023-03-04T06:17:26;196.55;;;39.28;;
1999;SDS011;1001;48.87406500;9.59633600;2023-03-04T06:19:53;89.82;;;27.85;;
1999;SDS011;1001;48.87406500;9.59633600;2023-03-04T06:22:20;74.55;;;25.63;;
1999;SDS011;1001;48.87406500;9.59633600;2023-03-04T06:24:46;127.43;;;31.75;;
1999;SDS011;1001;48.87406500;9.59633600;2023-03-04T06:27:15;280.98;;;38.20;;
1999;SDS011;1001;48.87406500;9.59633600;2023-03-04T06:29:41;229.05;;;40.05;;
1999;SDS011;1001;48.87406500;9.59633600;2023-03-04T06:32:08;106.95;;;30.80;;
1999;SDS011;1001;48.87406500;9.59633600;2023-03-04T06:34:35;140.38;;;36.45;;
1999;SDS011;1001;48.87406500;9.59633600;2023-03-04T06:37:01;46.35;;;24.92;;
1999;SDS011;1001;48.87406500;9.59633600;2023-03-04T06:39:28;124.97;;;32.47;;
1999;SDS011;1001;48.87406500;9.59633600;2023-03-04T06:41:55;89.15;;;27.88;;
1999;SDS011;1001;48.87406500;9.59633600;2023-03-04T06:44:23;63.20;;;26.05;;
1999;SDS011;1001;48.87406500;9.59633600;2023-03-04T06:46:49;68.22;;;27.58;;
1999;SDS011;1001;48.87406500;9.59633600;2023-03-04T06:49:16;80.30;;;31.20;;
1999;SDS011;1001;48.87406500;9.59633600;2023-03-04T06:51:43;48.22;;;23.10;;
1999;SDS011;1001;48.87406500;9.59633600;2023-03-04T06:54:09;180.85;;;34.53;;
1999;SDS011;1001;48.87406500;9.59633600;2023-03-04T06:56:36;286.50;;;46.60;;
1999;SDS011;1001;48.87406500;9.59633600;2023-03-04T06:59:03;210.93;;;35.05;;
1999;SDS011;1001;48.87406500;9.59633600;2023-03-04T07:01:31;235.55;;;41.17;;
1999;SDS011;1001;48.87406500;9.59633600;2023-03-04T07:03:58;54.45;;;27.45;;
1999;SDS011;1001;48.87406500;9.59633600;2023-03-04T07:06:26;45.03;;;23.13;;
1999;SDS011;1001;48.87406500;9.59633600;2023-03-04T07:08:53;104.13;;;30.48;;
1999;SDS011;1001;48.87406500;9.59633600;2023-03-04T07:11:21;207.48;;;41.38;;
1999;SDS011;1001;48.87406500;9.59633600;2023-03-04T07:13:48;58.85;;;24.67;;
1999;SDS011;1001;48.87406500;9.59633600;2023-03-04T07:16:16;44.17;;;23.98;;
1999;SDS011;1001;48.87406500;9.59633600;2023-03-04T07:18:45;38.55;;;20.58;;
1999;SDS011;1001;48.87406500;9.59633600;2023-03-04T07:21:13;47.28;;;19.92;;
1999;SDS011;1001;48.87406500;9.59633600;2023-03-04T07:23:40;34.17;;;20.15;;
1999;SDS011;1001;48.87406500;9.59633600;2023-03-04T07:26:06;35.40;;;18.00;;
1999;SDS011;1001;48.87406500;9.59633600;2023-03-04T07:28:34;41.55;;;19.27;;
1999;SDS011;1001;48.87406500;9.59633600;2023-03-04T07:31:08;32.92;;;18.10;;
1999;SDS011;1001;48.87406500;9.59633600;2023-03-04T07:33:43;34.22;;;17.83;;
1999;SDS011;1001;48.87406500;9.59633600;2023-03-04T07:36:11;34.42;;;17.20;;
1999;SDS011;1001;48.87406500;9.59633600;2023-03-04T07:38:41;25.42;;;14.18;;
1999;SDS011;1001;48.87406500;9.59633600;2023-03-04T07:41:08;25.27;;;15.97;;
1999;SDS011;1001;48.87406500;9.59633600;2023-03-04T07:43:35;50.97;;;19.83;;
1999;SDS011;1001;48.87406500;9.59633600;2023-03-04T07:46:02;62.50;;;19.27;;
1999;SDS011;1001;48.87406500;9.59633600;2023-03-04T07:48:29;31.50;;;15.43;;
1999;SDS011;1001;48.87406500;9.59633600;2023-03-04T07:51:02;44.90;;;18.07;;
1999;SDS011;1001;48.87406500;9.59633600;2023-03-04T07:53:32;33.00;;;15.83;;
1999;SDS011;1001;48.87406500;9.59633600;2023-03-04T07:55:59;75.67;;;21.13;;
1999;SDS011;1001;48.87406500;9.59633600;2023-03-04T07:58:26;56.13;;;16.60;;
1999;SDS011;1001;48.87406500;9.59633600;2023-03-04T08:00:53;32.27;;;15.40;;
1999;SDS011;1001;48.87406500;9.59633600;2023-03-04T08:03:20;31.43;;;17.20;;
1999;SDS011;1001;48.87406500;9.59633600;2023-03-04T08:05:46;100.97;;;22.63;;
1999;SDS011;1001;48.87406500;9.59633600;2023-03-04T08:08:13;44.22;;;17.40;;
1999;SDS011;1001;48.87406500;9.59633600;2023-03-04T08:10:41;36.67;;;17.30;;
1999;SDS011;1001;48.87406500;9.59633600;2023-03-04T08:13:08;33.77;;;16.47;;
1999;SDS011;1001;48.87406500;9.59633600;2023-03-04T08:15:38;36.15;;;18.25;;
1999;SDS011;1001;48.87406500;9.59633600;2023-03-04T08:18:05;42.08;;;19.85;;
1999;SDS011;1001;48.87406500;9.59633600;2023-03-04T08:20:32;35.43;;;17.87;;
1999;SDS011;1001;48.87406500;9.59633600;2023-03-04T08:22:58;36.00;;;17.30;;
1999;SDS011;1001;48.87406500;9.59633600;2023-03-04T08:25:25;25.20;;;15.10;;
1999;SDS011;1001;48.87406500;9.59633600;2023-03-04T08:27:53;33.97;;;17.13;;
1999;SDS011;1001;48.87406500;9.59633600;2023-03-04T08:30:19;36.60;;;17.10;;
1999;SDS011;1001;48.87406500;9.59633600;2023-03-04T08:32:46;35.47;;;17.17;;
1999;SDS011;1001;48.87406500;9.59633600;2023-03-04T08:35:13;40.40;;;18.10;;
1999;SDS011;1001;48.87406500;9.59633600;2023-03-04T08:37:39;48.33;;;17.90;;
1999;SDS011;1001;48.87406500;9.59633600;2023-03-04T08:40:06;27.58;;;15.43;;
1999;SDS011;1001;48.87406500;9.59633600;2023-03-04T08:42:34;35.40;;;16.40;;
1999;SDS011;1001;48.87406500;9.59633600;2023-03-04T08:45:02;34.87;;;17.80;;
1999;SDS011;1001;48.87406500;9.59633600;2023-03-04T08:47:29;30.80;;;16.93;;
1999;SDS011;1001;48.87406500;9.59633600;2023-03-04T08:49:56;30.40;;;14.50;;
1999;SDS011;1001;48.87406500;9.59633600;2023-03-04T08:52:22;29.33;;;15.47;;
1999;SDS011;1001;48.87406500;9.59633600;2023-03-04T08:54:49;28.83;;;16.13;;
1999;SDS011;1001;48.87406500;9.59633600;2023-03-04T08:57:16;30.43;;;18.00;;
1999;SDS011;1001;48.87406500;9.59633600;2023-03-04T08:59:42;33.87;;;16.30;;
1999;SDS011;1001;48.87406500;9.59633600;2023-03-04T09:02:10;34.92;;;17.30;;
1999;SDS011;1001;48.87406500;9.59633600;2023-03-04T09:04:37;35.40;;;16.67;;
1999;SDS011;1001;48.87406500;9.59633600;2023-03-04T09:07:04;32.92;;;17.52;;
1999;SDS011;1001;48.87406500;9.59633600;2023-03-04T09:09:31;32.23;;;15.53;;
1999;SDS011;1001;48.87406500;9.59633600;2023-03-04T09:11:58;27.73;;;16.27;;
1999;SDS011;1001;48.87406500;9.59633600;2023-03-04T09:14:24;33.40;;;16.97;;
1999;SDS011;1001;48.87406500;9.59633600;2023-03-04T09:16:51;30.23;;;16.63;;
1999;SDS011;1001;48.87406500;9.59633600;2023-03-04T09:19:19;30.33;;;16.93;;
1999;SDS011;1001;48.87406500;9.59633600;2023-03-04T09:21:46;34.33;;;19.00;;
1999;SDS011;1001;48.87406500;9.59633600;2023-03-04T09:24:12;27.70;;;18.07;;
1999;SDS011;1001;48.87406500;9.59633600;2023-03-04T09:26:39;31.23;;;16.97;;
1999;SDS011;1001;48.87406500;9.59633600;2023-03-04T09:29:05;30.43;;;16.20;;
1999;SDS011;1001;48.87406500;9.59633600;2023-03-04T09:31:32;28.93;;;16.37;;
1999;SDS011;1001;48.87406500;9.59633600;2023-03-04T09:33:59;30.87;;;16.70;;
1999;SDS011;1001;48.87406500;9.59633600;2023-03-04T09:36:27;35.73;;;17.40;;
1999;SDS011;1001;48.87406500;9.59633600;2023-03-04T09:38:53;33.00;;;16.40;;
1999;SDS011;1001;48.87406500;9.59633600;2023-03-04T09:41:21;28.40;;;17.20;;
1999;SDS011;1001;48.87406500;9.59633600;2023-03-04T09:43:51;27.47;;;14.60;;
1999;SDS011;1001;48.87406500;9.59633600;2023-03-04T09:46:21;26.47;;;13.87;;
1999;SDS011;1001;48.87406500;9.59633600;2023-03-04T09:48:54;25.63;;;14.20;;
1999;SDS011;1001;48.87406500;9.59633600;2023-03-04T09:51:22;26.67;;;15.23;;
1999;SDS011;1001;48.87406500;9.59633600;2023-03-04T09:54:07;28.73;;;16.17;;
1999;SDS011;1001;48.87406500;9.59633600;2023-03-04T09:56:36;31.47;;;15.40;;
1999;SDS011;1001;48.87406500;9.59633600;2023-03-04T09:59:06;32.17;;;15.80;;
1999;SDS011;1001;48.87406500;9.59633600;2023-03-04T10:01:41;32.40;;;16.53;;
1999;SDS011;1001;48.87406500;9.59633600;2023-03-04T10:04:15;31.33;;;15.70;;
1999;SDS011;1001;48.87406500;9.59633600;2023-03-04T10:06:45;27.10;;;14.03;;
1999;SDS011;1001;48.87406500;9.59633600;2023-03-04T10:09:18;28.33;;;16.03;;
1999;SDS011;1001;48.87406500;9.59633600;2023-03-04T10:11:51;26.13;;;14.73;;
1999;SDS011;1001;48.87406500;9.59633600;2023-03-04T10:14:32;24.70;;;13.50;;
1999;SDS011;1001;48.87406500;9.59633600;2023-03-04T10:17:04;32.30;;;15.43;;
1999;SDS011;1001;48.87406500;9.59633600;2023-03-04T10:19:40;30.53;;;15.30;;
1999;SDS011;1001;48.87406500;9.59633600;2023-03-04T10:22:21;28.00;;;14.20;;
1999;SDS011;1001;48.87406500;9.59633600;2023-03-04T10:24:52;23.20;;;14.00;;
1999;SDS011;1001;48.87406500;9.59633600;2023-03-04T10:27:21;31.80;;;18.10;;
1999;SDS011;1001;48.87406500;9.59633600;2023-03-04T10:29:49;30.77;;;15.00;;
1999;SDS011;1001;48.87406500;9.59633600;2023-03-04T10:32:16;30.10;;;17.80;;
1999;SDS011;1001;48.87406500;9.59633600;2023-03-04T10:34:45;26.73;;;15.60;;
1999;SDS011;1001;48.87406500;9.59633600;2023-03-04T10:37:11;24.33;;;14.07;;
1999;SDS011;1001;48.87406500;9.59633600;2023-03-04T10:39:40;27.90;;;15.13;;
1999;SDS011;1001;48.87406500;9.59633600;2023-03-04T10:42:21;24.97;;;15.20;;
1999;SDS011;1001;48.87406500;9.59633600;2023-03-04T10:44:52;29.50;;;15.33;;
1999;SDS011;1001;48.87406500;9.59633600;2023-03-04T10:47:22;27.87;;;15.63;;
1999;SDS011;1001;48.87406500;9.59633600;2023-03-04T10:49:50;29.70;;;16.30;;
1999;SDS011;1001;48.87406500;9.59633600;2023-03-04T10:52:22;35.80;;;16.30;;
1999;SDS011;1001;48.87406500;9.59633600;2023-03-04T10:54:55;24.73;;;14.80;;
1999;SDS011;1001;48.87406500;9.59633600;2023-03-04T10:57:25;23.47;;;14.93;;
1999;SDS011;1001;48.87406500;9.59633600;2023-03-04T10:59:58;26.63;;;16.67;;
1999;SDS011;1001;48.87406500;9.59633600;2023-03-04T11:02:25;32.13;;;17.07;;
1999;SDS011;1001;48.87406500;9.59633600;2023-03-04T11:04:54;31.47;;;15.73;;
1999;SDS011;1001;48.87406500;9.59633600;2023-03-04T11:07:29;33.63;;;16.13;;
1999;SDS011;1001;48.87406500;9.59633600;2023-03-04T11:10:07;27.93;;;14.87;;
1999;SDS011;1001;48.87406500;9.59633600;2023-03-04T11:12:34;21.03;;;12.80;;
1999;SDS011;1001;48.87406500;9.59633600;2023-03-04T11:15:01;26.43;;;15.50;;
1999;SDS011;1001;48.87406500;9.59633600;2023-03-04T11:17:38;24.77;;;15.60;;
1999;SDS011;1001;48.87406500;9.59633600;2023-03-04T11:20:11;26.83;;;14.73;;
1999;SDS011;1001;48.87406500;9.59633600;2023-03-04T11:22:42;27.03;;;15.93;;
1999;SDS011;1001;48.87406500;9.59633600;2023-03-04T11:25:17;23.37;;;13.97;;
1999;SDS011;1001;48.87406500;9.59633600;2023-03-04T11:27:50;24.03;;;15.63;;
1999;SDS011;1001;48.87406500;9.59633600;2023-03-04T11:30:37;26.50;;;15.50;;
1999;SDS011;1001;48.87406500;9.59633600;2023-03-04T11:33:11;29.53;;;15.97;;
1999;SDS011;1001;48.87406500;9.59633600;2023-03-04T11:35:43;27.70;;;15.53;;
1999;SDS011;1001;48.87406500;9.59633600;2023-03-04T11:38:17;25.20;;;14.50;;
1999;SDS011;1001;48.87406500;9.59633600;2023-03-04T11:40:48;23.27;;;14.53;;
1999;SDS011;1001;48.87406500;9.59633600;2023-03-04T11:43:18;30.97;;;14.80;;
1999;SDS011;1001;48.87406500;9.59633600;2023-03-04T11:48:44;26.53;;;15.13;;
1999;SDS011;1001;48.87406500;9.59633600;2023-03-04T11:51:19;26.27;;;14.80;;
1999;SDS011;1001;48.87406500;9.59633600;2023-03-04T11:53:52;24.43;;;15.13;;
1999;SDS011;1001;48.87406500;9.59633600;2023-03-04T11:56:30;32.03;;;15.80;;
1999;SDS011;1001;48.87406500;9.59633600;2023-03-04T12:01:53;25.00;;;15.60;;
1999;SDS011;1001;48.87406500;9.59633600;2023-03-04T12:04:33;25.17;;;14.33;;
1999;SDS011;1001;48.87406500;9.59633600;2023-03-04T12:07:15;36.60;;;18.40;;
1999;SDS011;1001;48.87406500;9.59633600;2023-03-04T12:09:55;29.30;;;17.77;;
1999;SDS011;1001;48.87406500;9.59633600;2023-03-04T12:12:34;25.07;;;15.83;;
1999;SDS011;1001;48.87406500;9.59633600;2023-03-04T12:15:13;34.53;;;18.17;;
1999;SDS011;1001;48.87406500;9.59633600;2023-03-04T12:20:49;31.70;;;16.30;;
1999;SDS011;1001;48.87406500;9.59633600;2023-03-04T12:23:26;27.97;;;17.17;;
1999;SDS011;1001;48.87406500;9.59633600;2023-03-04T12:26:09;26.33;;;15.00;;
1999;SDS011;1001;48.87406500;9.59633600;2023-03-04T12:28:53;23.97;;;15.70;;
1999;SDS011;1001;48.87406500;9.59633600;2023-03-04T12:31:33;34.03;;;18.90;;
1999;SDS011;1001;48.87406500;9.59633600;2023-03-04T12:34:08;33.70;;;17.93;;
1999;SDS011;1001;48.87406500;9.59633600;2023-03-04T12:36:54;29.90;;;16.93;;
1999;SDS011;1001;48.87406500;9.59633600;2023-03-04T12:39:36;28.93;;;17.70;;
1999;SDS011;1001;48.87406500;9.59633600;2023-03-04T12:42:09;36.47;;;19.63;;
1999;SDS011;1001;48.87406500;9.59633600;2023-03-04T12:44:51;30.73;;;17.20;;
1999;SDS011;1001;48.87406500;9.59633600;2023-03-04T12:47:27;27.73;;;16.97;;
1999;SDS011;1001;48.87406500;9.59633600;2023-03-04T12:50:06;28.90;;;19.20;;
1999;SDS011;1001;48.87406500;9.59633600;2023-03-04T12:52:51;30.27;;;17.80;;
1999;SDS011;1001;48.87406500;9.59633600;2023-03-04T12:55:29;35.40;;;17.77;;
1999;SDS011;1001;48.87406500;9.59633600;2023-03-04T12:58:02;32.60;;;16.07;;
1999;SDS011;1001;48.87406500;9.59633600;2023-03-04T13:00:33;33.93;;;18.73;;
1999;SDS011;1001;48.87406500;9.59633600;2023-03-04T13:03:10;33.87;;;17.23;;
1999;SDS011;1001;48.87406500;9.59633600;2023-03-04T13:05:49;35.67;;;18.60;;
1999;SDS011;1001;48.87406500;9.59633600;2023-03-04T13:08:29;36.63;;;18.83;;